Time;durP1;ratioP1;P1;durP2;ratioP2;P2;SDS_P1;SDS_P2;PMS_P1;PMS_P2;Temp;Humidity;BMP_temperature;BMP_pressure;BME280_temperature;BME280_humidity;BME280_pressure;Samples;Min_cycle;Max_cycle;Signal;HPM_P1;HPM_P2
2023/06/14 00:01:21;;;;;;;;;;;;;;;13.25;72.00;101846.41;5024719;28;19925;-76
2023/06/14 00:03:48;;;;;;;;;;;;;;;13.32;72.37;101840.81;5043297;28;19952;-75
2023/06/14 00:06:14;;;;;;;;;;;;;;;13.15;72.71;101843.66;5042123;28;20798;-74
2023/06/14 00:08:40;;;;;;;;;;;;;;;13.24;72.89;101844.81;5015034;28;19927;-77
2023/06/14 00:11:06;;;;;;;;;;;;;;;13.28;72.75;101848.59;5028646;28;19960;-78
2023/06/14 00:13:31;;;;;;;;;;;;;;;13.33;72.35;101845.09;5025187;28;20011;-75
2023/06/14 00:15:57;;;;;;;;;;;;;;;13.20;72.77;101851.75;5010724;28;19920;-74
2023/06/14 00:18:26;;;;;;;;;;;;;;;13.12;72.93;101846.84;5010302;28;19921;-78
2023/06/14 00:20:51;;;;;;;;;;;;;;;13.15;73.17;101851.72;5041771;28;19925;-78
2023/06/14 00:23:17;;;;;;;;;;;;;;;13.17;73.09;101854.13;5021293;28;19921;-76
2023/06/14 00:25:43;;;;;;;;;;;;;;;13.10;73.54;101857.06;4994526;28;19917;-74
2023/06/14 00:28:08;;;;;;;;;;;;;;;13.19;73.25;101852.00;5022324;28;20016;-77
2023/06/14 00:30:34;;;;;;;;;;;;;;;13.08;73.27;101861.91;5013073;28;19925;-77
2023/06/14 00:33:01;;;;;;;;;;;;;;;12.88;73.84;101865.25;5041019;28;19917;-75
2023/06/14 00:35:27;;;;;;;;;;;;;;;12.78;74.96;101865.97;5008815;28;20334;-76
2023/06/14 00:37:54;;;;;;;;;;;;;;;12.66;74.94;101867.19;5014171;28;20018;-76
2023/06/14 00:40:20;;;;;;;;;;;;;;;12.65;75.35;101862.91;5038461;28;19989;-76
2023/06/14 00:42:45;;;;;;;;;;;;;;;12.62;74.88;101858.84;5021860;28;20426;-76
2023/06/14 00:45:11;;;;;;;;;;;;;;;12.56;75.57;101868.75;5011273;28;19975;-76
2023/06/14 00:47:38;;;;;;;;;;;;;;;12.46;76.31;101875.88;5011620;28;21277;-75
2023/06/14 00:50:06;;;;;;;;;;;;;;;12.55;76.21;101874.38;5008200;28;20362;-74
2023/06/14 00:52:32;;;;;;;;;;;;;;;12.40;75.98;101871.56;5024819;28;20303;-77
2023/06/14 00:54:58;;;;;;;;;;;;;;;12.29;76.50;101871.44;5027335;28;19928;-76
2023/06/14 00:57:24;;;;;;;;;;;;;;;12.32;76.63;101880.03;5024307;28;19928;-75
2023/06/14 00:59:50;;;;;;;;;;;;;;;12.23;76.87;101872.44;5028357;28;19929;-73
2023/06/14 01:02:34;;;;;;;;;;;;;;;12.17;77.10;101881.50;5025802;28;19923;-76
2023/06/14 01:05:19;;;;;;;;;;;;;;;12.12;77.67;101881.44;5037241;28;19979;-73
2023/06/14 01:08:03;;;;;;;;;;;;;;;12.19;77.66;101879.41;5024531;28;19921;-75
2023/06/14 01:10:49;;;;;;;;;;;;;;;12.06;77.95;101877.13;5012630;28;19921;-75
2023/06/14 01:13:19;;;;;;;;;;;;;;;11.96;78.03;101882.34;5008543;28;19928;-76
2023/06/14 01:15:45;;;;;;;;;;;;;;;11.89;78.13;101871.00;5042349;28;19927;-75
2023/06/14 01:18:17;;;;;;;;;;;;;;;11.88;78.39;101880.13;5025161;28;20616;-76
2023/06/14 01:20:44;;;;;;;;;;;;;;;11.77;78.90;101885.31;5039643;28;19925;-76
2023/06/14 01:23:13;;;;;;;;;;;;;;;11.67;79.33;101887.88;5040622;28;19917;-75
2023/06/14 01:25:40;;;;;;;;;;;;;;;11.55;79.20;101887.19;5026184;28;20031;-76
2023/06/14 01:28:11;;;;;;;;;;;;;;;11.42;79.83;101882.16;5014409;28;19941;-75
2023/06/14 01:30:37;;;;;;;;;;;;;;;11.31;80.68;101885.75;5026737;28;20020;-76
2023/06/14 01:33:04;;;;;;;;;;;;;;;11.29;81.13;101882.50;5015573;28;19920;-74
2023/06/14 01:35:31;;;;;;;;;;;;;;;11.17;81.05;101885.28;5025901;28;19994;-75
2023/06/14 01:37:57;;;;;;;;;;;;;;;11.08;81.64;101882.22;5028063;28;20681;-76
2023/06/14 01:40:22;;;;;;;;;;;;;;;11.11;81.73;101884.41;5009485;28;19945;-75
2023/06/14 01:42:51;;;;;;;;;;;;;;;10.98;82.10;101892.78;5010929;28;20484;-75
2023/06/14 01:45:18;;;;;;;;;;;;;;;10.89;82.43;101894.22;5002016;28;19943;-74
2023/06/14 01:47:44;;;;;;;;;;;;;;;10.81;82.70;101886.59;5012930;28;19917;-76
2023/06/14 01:50:10;;;;;;;;;;;;;;;10.76;83.16;101889.19;5027945;28;19924;-76
2023/06/14 01:52:36;;;;;;;;;;;;;;;10.70;83.33;101890.97;5009540;28;19920;-77
2023/06/14 01:55:03;;;;;;;;;;;;;;;10.68;83.89;101892.28;5041998;28;20298;-76
2023/06/14 01:57:29;;;;;;;;;;;;;;;10.58;84.03;101893.72;5041275;28;19921;-76
2023/06/14 01:59:54;;;;;;;;;;;;;;;10.52;84.31;101894.69;5014380;28;20595;-75
2023/06/14 02:02:20;;;;;;;;;;;;;;;10.49;84.75;101895.16;5040233;28;19924;-75
2023/06/14 02:04:47;;;;;;;;;;;;;;;10.51;85.12;101893.06;5007552;28;20007;-75
2023/06/14 02:07:13;;;;;;;;;;;;;;;10.44;85.51;101887.06;5007855;28;19931;-74
2023/06/14 02:09:41;;;;;;;;;;;;;;;10.56;85.54;101895.81;5024210;28;19922;-76
2023/06/14 02:12:07;;;;;;;;;;;;;;;10.48;85.94;101893.53;5040047;28;19917;-76
2023/06/14 02:14:33;;;;;;;;;;;;;;;10.48;86.09;101888.19;5012044;28;20028;-76
2023/06/14 02:17:01;;;;;;;;;;;;;;;10.43;85.92;101890.78;5027054;28;20015;-74
2023/06/14 02:19:27;;;;;;;;;;;;;;;10.43;86.42;101895.31;5029311;28;20378;-77
2023/06/14 02:21:52;;;;;;;;;;;;;;;10.44;86.47;101889.72;5024749;28;20019;-75
2023/06/14 02:24:18;;;;;;;;;;;;;;;10.37;86.87;101895.25;5029149;28;20463;-75
2023/06/14 02:26:44;;;;;;;;;;;;;;;10.35;86.72;101894.66;5017042;28;19975;-76
2023/06/14 02:29:14;;;;;;;;;;;;;;;10.46;87.13;101906.38;5009880;28;19972;-75
2023/06/14 02:31:40;;;;;;;;;;;;;;;10.40;87.07;101907.31;5025306;28;19925;-76
2023/06/14 02:34:08;;;;;;;;;;;;;;;10.45;87.36;101904.75;5009765;28;19921;-75
2023/06/14 02:36:34;;;;;;;;;;;;;;;10.38;87.19;101904.09;5014647;28;20011;-75
2023/06/14 02:39:00;;;;;;;;;;;;;;;10.33;87.34;101903.97;5046579;28;20011;-75
2023/06/14 02:41:26;;;;;;;;;;;;;;;10.30;87.49;101907.16;5043472;28;20418;-76
2023/06/14 02:43:52;;;;;;;;;;;;;;;10.31;87.93;101911.44;5042310;28;19924;-75
2023/06/14 02:46:18;;;;;;;;;;;;;;;10.45;87.51;101909.28;5042949;28;20321;-76
2023/06/14 02:48:44;;;;;;;;;;;;;;;10.52;87.73;101912.63;5014173;28;19924;-75
2023/06/14 02:51:09;;;;;;;;;;;;;;;10.55;87.58;101915.63;5034460;28;19917;-75
2023/06/14 02:53:39;;;;;;;;;;;;;;;10.53;87.20;101916.94;5015663;28;19964;-76
2023/06/14 02:56:05;;;;;;;;;;;;;;;10.46;86.96;101910.91;5027390;28;19918;-76
2023/06/14 02:58:30;;;;;;;;;;;;;;;10.36;87.42;101923.06;5028665;28;20314;-75
2023/06/14 03:00:56;;;;;;;;;;;;;;;10.30;87.45;101913.31;5031045;28;19991;-76
2023/06/14 03:03:24;;;;;;;;;;;;;;;10.22;87.80;101905.59;5016695;28;20381;-76
2023/06/14 03:05:54;;;;;;;;;;;;;;;10.18;88.02;101915.19;5014525;28;20460;-76
2023/06/14 03:08:27;;;;;;;;;;;;;;;10.26;87.60;101906.81;5043212;28;19917;-77
2023/06/14 03:10:53;;;;;;;;;;;;;;;10.21;87.94;101909.34;5014596;28;20042;-76
2023/06/14 03:13:22;;;;;;;;;;;;;;;10.17;88.11;101918.09;5002438;28;19966;-74
2023/06/14 03:15:50;;;;;;;;;;;;;;;10.13;88.33;101915.06;5031188;28;20022;-74
2023/06/14 03:18:16;;;;;;;;;;;;;;;10.15;88.30;101922.88;5032448;28;19917;-74
2023/06/14 03:20:45;;;;;;;;;;;;;;;10.11;88.11;101923.34;5044351;28;19932;-74
2023/06/14 03:38:51;;;;;;;;;;;;;;;10.26;89.30;101933.56;5016606;28;19927;-75
2023/06/14 03:41:17;;;;;;;;;;;;;;;10.39;89.19;101940.50;5009004;28;19929;-77
2023/06/14 03:43:43;;;;;;;;;;;;;;;10.57;88.94;101942.19;5009347;28;19921;-77
2023/06/14 03:46:09;;;;;;;;;;;;;;;10.65;88.89;101947.16;4992915;28;19921;-76
2023/06/14 03:48:35;;;;;;;;;;;;;;;10.74;88.78;101950.25;5024906;28;19952;-76
2023/06/14 03:51:02;;;;;;;;;;;;;;;10.81;88.57;101959.75;5007006;28;19922;-75
2023/06/14 03:53:29;;;;;;;;;;;;;;;10.92;88.74;101963.44;5025956;28;19921;-75
2023/06/14 03:55:56;;;;;;;;;;;;;;;11.06;88.27;101959.41;4992351;28;19925;-75
2023/06/14 03:58:25;;;;;;;;;;;;;;;11.09;88.42;101961.59;4993175;28;19925;-76
2023/06/14 04:00:50;;;;;;;;;;;;;;;11.29;87.65;101965.66;4987539;28;19952;-75
2023/06/14 04:03:15;;;;;;;;;;;;;;;11.46;86.98;101971.81;4991951;28;20298;-76
2023/06/14 04:05:49;;;;;;;;;;;;;;;11.54;86.77;101974.09;5011968;28;19918;-76
2023/06/14 04:08:19;;;;;;;;;;;;;;;11.81;85.46;101973.44;5009881;28;19928;-76
2023/06/14 04:10:44;;;;;;;;;;;;;;;11.87;85.56;101980.50;4995438;28;19935;-75
2023/06/14 04:13:13;;;;;;;;;;;;;;;12.10;83.90;101984.81;5028628;28;19920;-77
2023/06/14 04:15:42;;;;;;;;;;;;;;;12.17;83.96;101978.19;5021264;28;19925;-77
2023/06/14 04:18:08;;;;;;;;;;;;;;;12.22;83.91;101978.25;5004580;28;19921;-78
2023/06/14 04:20:34;;;;;;;;;;;;;;;12.36;82.91;101986.75;5014042;28;19925;-78
2023/06/14 04:23:14;;;;;;;;;;;;;;;12.39;82.82;101974.69;5027223;28;19917;-76
2023/06/14 04:25:40;;;;;;;;;;;;;;;12.46;82.73;101980.66;5025740;28;19975;-77
2023/06/14 04:28:08;;;;;;;;;;;;;;;12.56;82.48;101980.78;4995156;28;19921;-76
2023/06/14 04:30:35;;;;;;;;;;;;;;;12.63;82.01;101983.28;4994103;28;19941;-77
2023/06/14 04:33:05;;;;;;;;;;;;;;;12.67;82.05;101989.78;4994209;28;20374;-72
2023/06/14 04:35:32;;;;;;;;;;;;;;;12.77;81.43;101990.69;5028732;28;20733;-76
2023/06/14 04:37:59;;;;;;;;;;;;;;;12.93;81.16;101991.63;5025054;28;19921;-77
2023/06/14 04:40:24;;;;;;;;;;;;;;;12.98;80.82;101983.63;4996311;28;20031;-78
2023/06/14 04:42:50;;;;;;;;;;;;;;;13.18;80.38;101983.00;4998332;28;20008;-77
2023/06/14 04:45:18;;;;;;;;;;;;;;;13.15;80.60;101980.81;4992987;28;20002;-77
2023/06/14 04:47:44;;;;;;;;;;;;;;;13.36;79.64;101993.41;5010803;28;19996;-78
2023/06/14 04:50:13;;;;;;;;;;;;;;;13.41;79.82;101981.84;4999861;28;20028;-76
2023/06/14 04:52:39;;;;;;;;;;;;;;;13.43;79.72;101987.00;4995862;28;19970;-77
2023/06/14 04:55:06;;;;;;;;;;;;;;;13.66;78.80;101979.31;4990468;28;19917;-77
2023/06/14 04:57:32;;;;;;;;;;;;;;;13.63;78.87;101987.13;5026647;28;19921;-77
2023/06/14 05:00:04;;;;;;;;;;;;;;;13.72;78.74;101987.44;5014284;28;19952;-76
2023/06/14 05:02:30;;;;;;;;;;;;;;;13.81;77.78;101978.59;5025450;28;20446;-80
2023/06/14 05:04:57;;;;;;;;;;;;;;;13.96;77.16;101985.16;4991657;28;20166;-77
2023/06/14 05:07:23;;;;;;;;;;;;;;;14.00;77.58;101980.84;5002216;28;19926;-76
2023/06/14 05:09:50;;;;;;;;;;;;;;;14.19;76.33;101982.84;5009501;28;20016;-76
2023/06/14 05:12:18;;;;;;;;;;;;;;;14.32;76.11;101984.22;4994583;28;20096;-79
2023/06/14 05:14:44;;;;;;;;;;;;;;;14.40;75.64;101986.41;5002545;28;19929;-76
2023/06/14 05:17:10;;;;;;;;;;;;;;;14.44;75.22;101986.69;5006945;28;19928;-78
2023/06/14 05:19:35;;;;;;;;;;;;;;;14.54;74.40;101980.53;4997274;28;20297;-76
2023/06/14 05:22:02;;;;;;;;;;;;;;;14.63;74.30;101989.72;5008652;28;19925;-76
2023/06/14 05:24:30;;;;;;;;;;;;;;;14.65;73.28;101990.28;5012724;28;19921;-77
2023/06/14 05:26:56;;;;;;;;;;;;;;;14.73;73.13;101985.16;5027652;28;20071;-77
2023/06/14 05:29:22;;;;;;;;;;;;;;;14.81;73.15;102000.00;5028782;28;19963;-75
2023/06/14 05:31:47;;;;;;;;;;;;;;;14.94;72.53;101996.00;5010553;28;19983;-76
2023/06/14 05:34:13;;;;;;;;;;;;;;;15.07;71.74;102000.06;5027022;28;19924;-76
2023/06/14 05:36:38;;;;;;;;;;;;;;;15.19;71.82;101992.50;5015895;28;19921;-76
2023/06/14 05:39:05;;;;;;;;;;;;;;;15.44;71.24;101997.88;5000896;28;19921;-75
2023/06/14 05:41:31;;;;;;;;;;;;;;;15.49;70.42;102003.28;5016783;28;19921;-75
2023/06/14 05:43:57;;;;;;;;;;;;;;;15.70;69.96;101995.16;5010324;28;19967;-75
2023/06/14 05:46:24;;;;;;;;;;;;;;;15.77;69.26;102001.09;5006537;28;19921;-75
2023/06/14 05:48:50;;;;;;;;;;;;;;;15.90;67.85;102003.22;4994959;28;20010;-77
2023/06/14 05:51:18;;;;;;;;;;;;;;;16.08;66.13;102008.03;5033350;28;19960;-79
2023/06/14 05:53:45;;;;;;;;;;;;;;;16.36;65.45;102008.47;5023980;28;19999;-73
2023/06/14 05:56:11;;;;;;;;;;;;;;;16.55;63.63;102014.06;5021883;28;19917;-77
2023/06/14 05:58:36;;;;;;;;;;;;;;;16.73;62.90;102010.75;5004320;28;19971;-75
2023/06/14 06:01:02;;;;;;;;;;;;;;;16.68;62.70;102012.63;5015757;28;19921;-75
2023/06/14 06:03:29;;;;;;;;;;;;;;;16.78;62.59;102023.41;5027334;28;19917;-78
2023/06/14 06:05:55;;;;;;;;;;;;;;;16.75;62.47;102018.56;5024106;28;19959;-78
2023/06/14 06:08:21;;;;;;;;;;;;;;;16.91;62.33;102022.78;4997100;28;19960;-76
2023/06/14 06:10:46;;;;;;;;;;;;;;;16.99;61.16;102019.47;5001398;28;19921;-75
2023/06/14 06:13:12;;;;;;;;;;;;;;;17.09;60.90;102019.41;4999862;28;19957;-76
2023/06/14 06:15:37;;;;;;;;;;;;;;;17.24;61.14;102021.19;5013077;28;19983;-76
2023/06/14 06:18:06;;;;;;;;;;;;;;;17.28;60.79;102016.03;5020981;28;19927;-80
2023/06/14 06:20:31;;;;;;;;;;;;;;;17.43;60.54;102013.19;5016277;28;19988;-76
2023/06/14 06:22:58;;;;;;;;;;;;;;;17.34;60.33;102009.47;5015472;28;19920;-79
2023/06/14 06:25:25;;;;;;;;;;;;;;;17.65;60.57;102018.94;5016039;28;19928;-79
2023/06/14 06:27:56;;;;;;;;;;;;;;;17.66;59.76;102015.13;5036297;28;20008;-77
2023/06/14 06:30:22;;;;;;;;;;;;;;;17.73;59.40;102021.03;5000397;28;20583;-77
2023/06/14 06:32:47;;;;;;;;;;;;;;;17.77;58.60;102023.19;5025401;28;19921;-75
2023/06/14 06:35:13;;;;;;;;;;;;;;;18.05;58.16;102019.63;5010079;28;19933;-77
2023/06/14 06:37:39;;;;;;;;;;;;;;;17.95;57.66;102017.00;5009049;28;19921;-79
2023/06/14 06:40:05;;;;;;;;;;;;;;;18.33;56.82;102019.81;5032438;28;19929;-77
2023/06/14 06:42:34;;;;;;;;;;;;;;;18.54;56.86;102023.88;5012803;28;19921;-74
2023/06/14 06:45:03;;;;;;;;;;;;;;;18.39;56.43;102026.81;5011104;28;20377;-78
2023/06/14 06:47:30;;;;;;;;;;;;;;;18.22;55.51;102030.81;5032760;28;19976;-75
2023/06/14 06:49:55;;;;;;;;;;;;;;;18.40;54.93;102031.94;5016305;28;20373;-77
2023/06/14 06:52:21;;;;;;;;;;;;;;;18.72;54.97;102039.41;4995135;28;20020;-78
2023/06/14 06:54:46;;;;;;;;;;;;;;;18.97;53.13;102040.16;5014436;28;19928;-77
2023/06/14 06:57:12;;;;;;;;;;;;;;;18.80;53.08;102044.16;5012148;28;19921;-75
2023/06/14 06:59:38;;;;;;;;;;;;;;;18.78;52.48;102048.28;4998978;28;19921;-75
2023/06/14 07:02:03;;;;;;;;;;;;;;;18.99;52.68;102048.78;5013595;28;19925;-75
2023/06/14 07:04:29;;;;;;;;;;;;;;;19.12;51.40;102052.69;5029918;28;20270;-76
2023/06/14 07:06:55;;;;;;;;;;;;;;;19.36;50.63;102048.72;4999253;28;19925;-77
2023/06/14 07:09:24;;;;;;;;;;;;;;;19.54;51.69;102043.56;4993002;28;19921;-77
2023/06/14 07:11:50;;;;;;;;;;;;;;;19.44;51.05;102049.97;5012653;28;19968;-80
2023/06/14 07:14:15;;;;;;;;;;;;;;;19.50;50.59;102051.47;5011130;28;19968;-80
2023/06/14 07:16:41;;;;;;;;;;;;;;;19.77;49.88;102047.25;5005965;28;20007;-76
2023/06/14 07:19:06;;;;;;;;;;;;;;;19.74;48.67;102051.38;5030135;28;20318;-76
2023/06/14 07:21:35;;;;;;;;;;;;;;;20.05;48.05;102050.78;5024945;28;19922;-76
2023/06/14 07:24:01;;;;;;;;;;;;;;;20.27;47.45;102050.09;5017284;28;19921;-76
2023/06/14 07:26:26;;;;;;;;;;;;;;;20.29;47.31;102053.31;5010537;28;20504;-78
2023/06/14 07:28:52;;;;;;;;;;;;;;;20.26;48.75;102054.75;5026165;28;19948;-78
2023/06/14 07:31:19;;;;;;;;;;;;;;;20.61;48.39;102044.25;5001284;28;19924;-75
2023/06/14 07:33:44;;;;;;;;;;;;;;;20.69;47.64;102046.22;5012560;28;19947;-77
2023/06/14 07:36:10;;;;;;;;;;;;;;;20.45;47.74;102046.47;5029200;28;20467;-75
2023/06/14 07:38:36;;;;;;;;;;;;;;;20.54;47.24;102043.84;5024580;28;19918;-75
2023/06/14 07:41:02;;;;;;;;;;;;;;;20.62;47.17;102043.94;5021942;28;20377;-80
2023/06/14 07:43:27;;;;;;;;;;;;;;;20.56;47.45;102042.44;5029751;28;19947;-78
2023/06/14 07:45:53;;;;;;;;;;;;;;;20.93;46.15;102043.22;5023096;28;20290;-78
2023/06/14 07:48:19;;;;;;;;;;;;;;;20.93;46.74;102038.59;5028880;28;19980;-77
2023/06/14 07:50:44;;;;;;;;;;;;;;;21.23;46.58;102039.78;4998426;28;19969;-76
2023/06/14 07:53:10;;;;;;;;;;;;;;;21.05;45.33;102031.78;5028196;28;20424;-76
2023/06/14 07:55:39;;;;;;;;;;;;;;;21.39;44.97;102037.50;5044063;28;19917;-76
2023/06/14 07:58:06;;;;;;;;;;;;;;;21.68;45.64;102036.25;4992545;28;19960;-76
2023/06/14 08:00:31;;;;;;;;;;;;;;;21.53;44.86;102035.50;4993001;28;20456;-77
2023/06/14 08:02:59;;;;;;;;;;;;;;;21.79;45.07;102034.81;5022455;28;19918;-79
2023/06/14 08:05:25;;;;;;;;;;;;;;;21.84;44.70;102044.81;5004209;28;19925;-78
2023/06/14 08:07:51;;;;;;;;;;;;;;;21.91;43.91;102042.44;5007348;28;19944;-76
2023/06/14 08:10:17;;;;;;;;;;;;;;;21.50;43.30;102038.06;4999422;28;20442;-76
2023/06/14 08:12:43;;;;;;;;;;;;;;;21.67;43.53;102038.13;5013983;28;19947;-75
2023/06/14 08:15:09;;;;;;;;;;;;;;;21.76;43.61;102030.00;5010799;28;19916;-78
2023/06/14 08:17:34;;;;;;;;;;;;;;;22.15;42.83;102025.66;5029278;28;19921;-77
2023/06/14 08:20:00;;;;;;;;;;;;;;;22.14;42.80;102034.97;5020037;28;19956;-76
2023/06/14 08:22:25;;;;;;;;;;;;;;;21.93;42.30;102034.72;5020396;28;19929;-75
2023/06/14 08:24:52;;;;;;;;;;;;;;;21.93;42.90;102029.25;5011105;28;19921;-78
2023/06/14 08:27:18;;;;;;;;;;;;;;;22.26;43.50;102040.63;5025594;28;19943;-75
2023/06/14 08:29:44;;;;;;;;;;;;;;;22.17;42.27;102037.09;5013061;28;20362;-73
2023/06/14 08:32:10;;;;;;;;;;;;;;;22.73;42.78;102027.22;4993939;28;19998;-78
2023/06/14 08:34:36;;;;;;;;;;;;;;;22.81;41.97;102038.13;5028350;28;19961;-76
2023/06/14 08:37:01;;;;;;;;;;;;;;;21.98;43.35;102038.13;5024322;28;19929;-77
2023/06/14 08:39:27;;;;;;;;;;;;;;;22.46;42.20;102029.13;5023541;28;19921;-79
2023/06/14 08:41:52;;;;;;;;;;;;;;;22.83;42.89;102029.66;5007750;28;19935;-76
2023/06/14 08:44:18;;;;;;;;;;;;;;;23.02;41.80;102027.41;5030267;28;20007;-79
2023/06/14 08:46:44;;;;;;;;;;;;;;;22.92;41.98;102025.00;4994231;28;19941;-76
2023/06/14 08:49:12;;;;;;;;;;;;;;;23.19;39.82;102036.72;4994524;28;19983;-80
2023/06/14 08:51:40;;;;;;;;;;;;;;;23.04;40.09;102032.56;5041618;28;19921;-76
2023/06/14 08:54:06;;;;;;;;;;;;;;;23.67;38.38;102036.47;5010928;28;19921;-76
2023/06/14 08:56:33;;;;;;;;;;;;;;;23.47;40.11;102035.19;4992685;28;19922;-77
2023/06/14 08:59:03;;;;;;;;;;;;;;;23.37;40.25;102039.09;5008407;28;19922;-76
2023/06/14 09:01:36;;;;;;;;;;;;;;;23.52;39.40;102034.22;5026524;28;19928;-77
2023/06/14 09:04:02;;;;;;;;;;;;;;;23.66;38.47;102035.66;5024892;28;19921;-77
2023/06/14 09:06:30;;;;;;;;;;;;;;;23.20;40.04;102032.84;5030607;28;20305;-77
2023/06/14 09:08:58;;;;;;;;;;;;;;;23.14;40.66;102037.69;5026549;28;20266;-76
2023/06/14 09:11:25;;;;;;;;;;;;;;;23.29;40.58;102036.34;5020600;28;19921;-77
2023/06/14 09:13:51;;;;;;;;;;;;;;;23.38;40.07;102026.22;5010847;28;20396;-76
2023/06/14 09:16:17;;;;;;;;;;;;;;;23.63;40.27;102028.09;5002543;28;19921;-77
2023/06/14 09:18:44;;;;;;;;;;;;;;;24.41;38.28;102032.41;5018092;28;20398;-78
2023/06/14 09:21:11;;;;;;;;;;;;;;;24.41;38.56;102030.47;5009607;28;20008;-76
2023/06/14 09:23:39;;;;;;;;;;;;;;;24.47;38.55;102031.09;4984663;28;19929;-76
2023/06/14 09:26:09;;;;;;;;;;;;;;;24.38;38.65;102033.06;5009764;28;19929;-76
2023/06/14 09:28:35;;;;;;;;;;;;;;;24.11;38.20;102026.13;5009158;28;20181;-76
2023/06/14 09:31:01;;;;;;;;;;;;;;;24.22;38.49;102030.88;5010826;28;19925;-77
2023/06/14 09:33:27;;;;;;;;;;;;;;;24.67;37.60;102024.81;5020716;28;19958;-76
2023/06/14 09:35:56;;;;;;;;;;;;;;;24.60;38.69;102024.56;4997780;28;19935;-79
2023/06/14 09:38:22;;;;;;;;;;;;;;;23.66;38.34;102024.72;5008425;28;19921;-76
2023/06/14 09:40:49;;;;;;;;;;;;;;;23.89;37.86;102016.25;5011149;28;19921;-78
2023/06/14 09:43:15;;;;;;;;;;;;;;;23.87;38.59;102024.00;5024395;28;20362;-75
2023/06/14 09:45:41;;;;;;;;;;;;;;;23.68;39.05;102021.66;4994363;28;19928;-75
2023/06/14 09:48:09;;;;;;;;;;;;;;;24.09;38.95;102026.44;5021588;28;19921;-75
2023/06/14 09:50:35;;;;;;;;;;;;;;;24.57;36.61;102038.91;4995316;28;19921;-77
2023/06/14 09:53:10;;;;;;;;;;;;;;;24.66;36.57;102023.22;5026135;28;19921;-76
2023/06/14 09:55:37;;;;;;;;;;;;;;;24.79;36.41;102026.78;5022568;28;19932;-74
2023/06/14 09:58:06;;;;;;;;;;;;;;;25.11;36.15;102027.19;5025497;28;19964;-74
2023/06/14 10:00:33;;;;;;;;;;;;;;;24.67;36.44;102024.81;5022842;28;19924;-76
2023/06/14 10:03:03;;;;;;;;;;;;;;;24.95;36.80;102024.25;5021343;28;19921;-77
2023/06/14 10:05:29;;;;;;;;;;;;;;;25.34;36.87;102020.19;5023047;28;20463;-75
2023/06/14 10:08:05;;;;;;;;;;;;;;;25.39;35.50;102021.91;5003855;28;20008;-75
2023/06/14 10:10:31;;;;;;;;;;;;;;;25.38;35.10;102009.34;5022781;28;19957;-77
2023/06/14 10:12:56;;;;;;;;;;;;;;;25.26;36.37;102012.84;5025477;28;20014;-74
2023/06/14 10:15:32;;;;;;;;;;;;;;;25.50;35.56;102017.59;5026892;28;19928;-74
2023/06/14 10:18:06;;;;;;;;;;;;;;;25.44;35.39;102008.78;5018570;28;19927;-77
2023/06/14 10:20:39;;;;;;;;;;;;;;;25.22;35.05;102012.75;4991197;28;19936;-77
2023/06/14 10:23:11;;;;;;;;;;;;;;;25.85;34.29;102018.78;5032782;28;19925;-76
2023/06/14 10:25:37;;;;;;;;;;;;;;;25.97;34.67;102014.47;5023785;28;19921;-74
2023/06/14 10:28:24;;;;;;;;;;;;;;;25.28;35.99;102011.38;5021161;28;19941;-74
2023/06/14 10:31:03;;;;;;;;;;;;;;;25.62;35.69;102003.91;5008386;28;19921;-77
2023/06/14 10:33:29;;;;;;;;;;;;;;;26.07;35.34;102013.97;5025620;28;20579;-77
2023/06/14 10:36:07;;;;;;;;;;;;;;;25.02;35.35;101999.84;5018215;28;19927;-75
2023/06/14 10:38:34;;;;;;;;;;;;;;;25.16;36.20;102002.31;5004060;28;19922;-75
2023/06/14 10:41:00;;;;;;;;;;;;;;;24.88;35.19;102002.09;5024151;28;20646;-74
2023/06/14 10:43:25;;;;;;;;;;;;;;;24.46;36.27;101999.38;5002969;28;20156;-74
2023/06/14 10:46:10;;;;;;;;;;;;;;;25.21;35.28;101991.16;5044123;28;20707;-75
2023/06/14 10:48:40;;;;;;;;;;;;;;;24.39;36.18;102002.66;5026100;28;19956;-74
2023/06/14 10:51:06;;;;;;;;;;;;;;;24.01;37.63;101997.22;5014936;28;19921;-74
2023/06/14 10:53:40;;;;;;;;;;;;;;;23.34;39.49;102001.47;5024925;28;19924;-76
2023/06/14 10:56:08;;;;;;;;;;;;;;;24.17;37.29;102000.16;5009814;28;20008;-75
2023/06/14 10:58:34;;;;;;;;;;;;;;;25.21;35.89;101994.69;5030580;28;19921;-76
2023/06/14 11:01:00;;;;;;;;;;;;;;;25.83;33.76;101982.66;5027407;28;20428;-75
2023/06/14 11:03:36;;;;;;;;;;;;;;;26.30;33.88;101984.91;5030867;28;19925;-75
2023/06/14 11:06:12;;;;;;;;;;;;;;;25.69;34.63;101982.19;5043648;28;19925;-78
2023/06/14 11:08:44;;;;;;;;;;;;;;;25.94;34.29;101984.94;5031484;28;19966;-75
2023/06/14 11:11:10;;;;;;;;;;;;;;;24.84;35.96;101990.19;5006356;28;20216;-75
2023/06/14 11:13:39;;;;;;;;;;;;;;;24.10;36.67;101992.47;5015856;28;19965;-76
2023/06/14 11:16:12;;;;;;;;;;;;;;;23.87;37.78;101988.44;5016240;28;19921;-75
2023/06/14 11:18:37;;;;;;;;;;;;;;;23.56;38.67;101986.75;5030974;28;19918;-75
2023/06/14 11:21:31;;;;;;;;;;;;;;;24.24;38.21;101982.06;5043151;28;19943;-75
2023/06/14 11:23:57;;;;;;;;;;;;;;;25.22;36.18;101977.09;4998783;28;19924;-74
2023/06/14 11:26:27;;;;;;;;;;;;;;;25.53;33.98;101967.53;5034338;28;19920;-76
2023/06/14 11:28:54;;;;;;;;;;;;;;;26.13;34.11;101963.19;5014088;28;19917;-77
2023/06/14 11:31:20;;;;;;;;;;;;;;;26.61;32.94;101958.72;5032112;28;20497;-75
2023/06/14 11:33:49;;;;;;;;;;;;;;;26.66;32.61;101955.75;5031000;28;20013;-78
2023/06/14 11:36:15;;;;;;;;;;;;;;;26.58;33.49;101962.19;5031483;28;19917;-76
2023/06/14 11:38:40;;;;;;;;;;;;;;;26.25;32.74;101957.69;5026022;28;19921;-75
2023/06/14 11:41:06;;;;;;;;;;;;;;;26.02;33.56;101957.38;5028779;28;19932;-76
2023/06/14 11:43:33;;;;;;;;;;;;;;;26.18;33.75;101962.16;5012801;28;19956;-75
2023/06/14 11:45:59;;;;;;;;;;;;;;;25.65;34.28;101964.81;4999123;28;19921;-77
2023/06/14 11:48:41;;;;;;;;;;;;;;;26.31;32.74;101961.78;5024746;28;19925;-74
2023/06/14 11:51:07;;;;;;;;;;;;;;;26.63;31.11;101948.22;5029923;28;19920;-77
2023/06/14 11:53:32;;;;;;;;;;;;;;;26.76;30.81;101958.00;5001070;28;19971;-76
2023/06/14 11:55:58;;;;;;;;;;;;;;;27.98;29.85;101948.94;5029571;28;19960;-75
2023/06/14 11:58:25;;;;;;;;;;;;;;;27.75;30.11;101953.47;5029161;28;20274;-76
2023/06/14 12:00:50;;;;;;;;;;;;;;;26.33;31.37;101956.75;5012431;28;19932;-75
2023/06/14 12:03:16;;;;;;;;;;;;;;;25.17;33.81;101949.91;5028255;28;20062;-74
2023/06/14 12:05:41;;;;;;;;;;;;;;;25.09;34.63;101945.31;5009530;28;19964;-74
2023/06/14 12:08:07;;;;;;;;;;;;;;;24.82;35.83;101952.16;5019547;28;19921;-75
2023/06/14 12:10:43;;;;;;;;;;;;;;;25.15;33.79;101945.91;5009473;28;19964;-75
2023/06/14 12:13:09;;;;;;;;;;;;;;;25.25;33.79;101945.44;5015186;28;20374;-74
2023/06/14 12:15:35;;;;;;;;;;;;;;;25.11;34.02;101948.50;5024675;28;19972;-76
2023/06/14 12:18:00;;;;;;;;;;;;;;;24.82;36.16;101937.69;4995269;28;19931;-76
2023/06/14 12:20:30;;;;;;;;;;;;;;;24.47;37.74;101933.31;5009003;28;19951;-74
2023/06/14 12:22:58;;;;;;;;;;;;;;;23.95;37.28;101941.06;5024486;28;19932;-75
2023/06/14 12:25:26;;;;;;;;;;;;;;;23.88;37.69;101943.53;5024083;28;19975;-75
2023/06/14 12:27:53;;;;;;;;;;;;;;;23.57;37.86;101930.97;5015095;28;20362;-75
2023/06/14 12:30:19;;;;;;;;;;;;;;;24.82;38.61;101926.72;5010503;28;19932;-77
2023/06/14 12:32:45;;;;;;;;;;;;;;;26.68;33.61;101917.72;5022562;28;19920;-76
2023/06/14 12:35:11;;;;;;;;;;;;;;;26.86;31.89;101930.00;5024445;28;19932;-76
2023/06/14 12:37:36;;;;;;;;;;;;;;;26.80;32.29;101934.16;5010810;28;20352;-76
2023/06/14 12:40:05;;;;;;;;;;;;;;;27.34;31.73;101928.09;5008841;28;20463;-77
2023/06/14 12:42:31;;;;;;;;;;;;;;;26.84;32.47;101923.25;4990450;28;20309;-76
2023/06/14 12:44:57;;;;;;;;;;;;;;;27.97;29.33;101922.53;4995578;28;20440;-76
2023/06/14 12:47:22;;;;;;;;;;;;;;;27.73;31.43;101934.59;5035996;28;19928;-75
2023/06/14 12:49:48;;;;;;;;;;;;;;;26.30;33.41;101921.75;4994322;28;19929;-76
2023/06/14 12:52:14;;;;;;;;;;;;;;;25.34;33.57;101926.97;4990953;28;19933;-76